sensor_id;sensor_type;location;lat;lon;timestamp;pressure;altitude;pressure_sealevel;temperature;humidity
33432;BME280;35187;31.882;34.828;2023-05-21T00:02:20;100390;;;19;48
33432;BME280;35187;31.882;34.828;2023-05-21T00:04:51;100390;;;20;48
33432;BME280;35187;31.882;34.828;2023-05-21T00:07:20;100390;;;19;48
33432;BME280;35187;31.882;34.828;2023-05-21T00:09:50;100400;;;20;48
33432;BME280;35187;31.882;34.828;2023-05-21T00:12:20;100400;;;20;48
33432;BME280;35187;31.882;34.828;2023-05-21T00:14:50;100390;;;19;48
33432;BME280;35187;31.882;34.828;2023-05-21T00:17:21;100390;;;20;48
33432;BME280;35187;31.882;34.828;2023-05-21T00:19:50;100400;;;19;48
33432;BME280;35187;31.882;34.828;2023-05-21T00:22:19;100400;;;20;48
33432;BME280;35187;31.882;34.828;2023-05-21T00:24:51;100400;;;20;48
33432;BME280;35187;31.882;34.828;2023-05-21T00:27:22;100400;;;20;48
33432;BME280;35187;31.882;34.828;2023-05-21T00:29:51;100400;;;20;48
33432;BME280;35187;31.882;34.828;2023-05-21T00:32:22;100400;;;19;48
33432;BME280;35187;31.882;34.828;2023-05-21T00:34:51;100390;;;19;48
33432;BME280;35187;31.882;34.828;2023-05-21T00:37:20;100390;;;19;48
33432;BME280;35187;31.882;34.828;2023-05-21T00:39:49;100390;;;19;48
33432;BME280;35187;31.882;34.828;2023-05-21T00:42:18;100390;;;19;48
33432;BME280;35187;31.882;34.828;2023-05-21T00:44:48;100380;;;19;48
33432;BME280;35187;31.882;34.828;2023-05-21T00:47:17;100390;;;19;48
33432;BME280;35187;31.882;34.828;2023-05-21T00:49:48;100380;;;19;48
33432;BME280;35187;31.882;34.828;2023-05-21T00:52:38;100380;;;19;48
33432;BME280;35187;31.882;34.828;2023-05-21T00:55:13;100380;;;19;48
33432;BME280;35187;31.882;34.828;2023-05-21T00:57:42;100370;;;20;48
33432;BME280;35187;31.882;34.828;2023-05-21T01:00:15;100370;;;19;48
33432;BME280;35187;31.882;34.828;2023-05-21T01:02:45;100370;;;19;48
33432;BME280;35187;31.882;34.828;2023-05-21T01:05:26;100370;;;19;48
33432;BME280;35187;31.882;34.828;2023-05-21T01:07:58;100370;;;19;48
33432;BME280;35187;31.882;34.828;2023-05-21T01:10:27;100370;;;19;48
33432;BME280;35187;31.882;34.828;2023-05-21T01:12:58;100360;;;19;48
33432;BME280;35187;31.882;34.828;2023-05-21T01:15:41;100350;;;19;48
33432;BME280;35187;31.882;34.828;2023-05-21T01:18:13;100350;;;19;48
33432;BME280;35187;31.882;34.828;2023-05-21T01:20:44;100350;;;19;48
33432;BME280;35187;31.882;34.828;2023-05-21T01:23:14;100360;;;19;48
33432;BME280;35187;31.882;34.828;2023-05-21T01:25:44;100360;;;19;48
33432;BME280;35187;31.882;34.828;2023-05-21T01:28:14;100350;;;19;48
33432;BME280;35187;31.882;34.828;2023-05-21T01:30:43;100360;;;19;48
33432;BME280;35187;31.882;34.828;2023-05-21T01:33:16;100360;;;19;48
33432;BME280;35187;31.882;34.828;2023-05-21T01:35:58;100360;;;19;48
33432;BME280;35187;31.882;34.828;2023-05-21T01:38:40;100370;;;19;48
33432;BME280;35187;31.882;34.828;2023-05-21T01:41:11;100380;;;19;48
33432;BME280;35187;31.882;34.828;2023-05-21T01:43:44;100390;;;19;48
33432;BME280;35187;31.882;34.828;2023-05-21T01:46:20;100390;;;19;48
33432;BME280;35187;31.882;34.828;2023-05-21T01:48:52;100390;;;19;48
33432;BME280;35187;31.882;34.828;2023-05-21T01:51:23;100390;;;19;48
33432;BME280;35187;31.882;34.828;2023-05-21T01:53:52;100400;;;19;49
33432;BME280;35187;31.882;34.828;2023-05-21T01:56:23;100400;;;19;49
33432;BME280;35187;31.882;34.828;2023-05-21T01:58:53;100410;;;19;49
33432;BME280;35187;31.882;34.828;2023-05-21T02:01:23;100410;;;19;49
33432;BME280;35187;31.882;34.828;2023-05-21T02:03:55;100410;;;19;49
33432;BME280;35187;31.882;34.828;2023-05-21T02:06:26;100400;;;19;49
33432;BME280;35187;31.882;34.828;2023-05-21T02:08:55;100400;;;19;49
33432;BME280;35187;31.882;34.828;2023-05-21T02:11:24;100400;;;19;49
33432;BME280;35187;31.882;34.828;2023-05-21T02:13:53;100400;;;20;49
33432;BME280;35187;31.882;34.828;2023-05-21T02:16:25;100390;;;19;49
33432;BME280;35187;31.882;34.828;2023-05-21T02:18:54;100390;;;19;48
33432;BME280;35187;31.882;34.828;2023-05-21T02:21:23;100380;;;19;49
33432;BME280;35187;31.882;34.828;2023-05-21T02:23:52;100380;;;20;48
33432;BME280;35187;31.882;34.828;2023-05-21T02:26:22;100380;;;19;49
33432;BME280;35187;31.882;34.828;2023-05-21T02:28:52;100380;;;19;49
33432;BME280;35187;31.882;34.828;2023-05-21T02:31:25;100380;;;19;49
33432;BME280;35187;31.882;34.828;2023-05-21T02:33:57;100380;;;19;49
33432;BME280;35187;31.882;34.828;2023-05-21T02:36:41;100380;;;19;49
33432;BME280;35187;31.882;34.828;2023-05-21T02:39:16;100390;;;19;49
33432;BME280;35187;31.882;34.828;2023-05-21T02:41:46;100400;;;19;49
33432;BME280;35187;31.882;34.828;2023-05-21T02:44:27;100400;;;19;49
33432;BME280;35187;31.882;34.828;2023-05-21T02:47:00;100400;;;19;49
33432;BME280;35187;31.882;34.828;2023-05-21T02:49:36;100410;;;19;49
33432;BME280;35187;31.882;34.828;2023-05-21T02:52:07;100410;;;19;49
33432;BME280;35187;31.882;34.828;2023-05-21T02:54:38;100420;;;19;49
33432;BME280;35187;31.882;34.828;2023-05-21T02:57:10;100430;;;19;49
33432;BME280;35187;31.882;34.828;2023-05-21T02:59:48;100440;;;19;49
33432;BME280;35187;31.882;34.828;2023-05-21T03:02:19;100430;;;19;49
33432;BME280;35187;31.882;34.828;2023-05-21T03:04:49;100430;;;19;49
33432;BME280;35187;31.882;34.828;2023-05-21T03:07:18;100440;;;19;49
33432;BME280;35187;31.882;34.828;2023-05-21T03:09:47;100440;;;19;49
33432;BME280;35187;31.882;34.828;2023-05-21T03:12:31;100450;;;19;49
33432;BME280;35187;31.882;34.828;2023-05-21T03:15:00;100450;;;19;49
33432;BME280;35187;31.882;34.828;2023-05-21T03:17:34;100450;;;19;49
33432;BME280;35187;31.882;34.828;2023-05-21T03:20:04;100440;;;19;49
33432;BME280;35187;31.882;34.828;2023-05-21T03:22:34;100440;;;19;49
33432;BME280;35187;31.882;34.828;2023-05-21T03:25:10;100440;;;19;49
33432;BME280;35187;31.882;34.828;2023-05-21T03:27:40;100440;;;19;49
33432;BME280;35187;31.882;34.828;2023-05-21T03:30:19;100450;;;19;49
33432;BME280;35187;31.882;34.828;2023-05-21T03:32:50;100440;;;19;49
33432;BME280;35187;31.882;34.828;2023-05-21T03:35:23;100440;;;19;49
33432;BME280;35187;31.882;34.828;2023-05-21T03:38:02;100450;;;19;49
33432;BME280;35187;31.882;34.828;2023-05-21T03:40:34;100440;;;19;49
33432;BME280;35187;31.882;34.828;2023-05-21T03:43:29;100440;;;19;49
33432;BME280;35187;31.882;34.828;2023-05-21T03:46:00;100440;;;19;49
33432;BME280;35187;31.882;34.828;2023-05-21T03:48:31;100440;;;19;49
33432;BME280;35187;31.882;34.828;2023-05-21T03:51:04;100440;;;19;49
33432;BME280;35187;31.882;34.828;2023-05-21T03:53:37;100440;;;19;49
33432;BME280;35187;31.882;34.828;2023-05-21T03:56:13;100440;;;19;49
33432;BME280;35187;31.882;34.828;2023-05-21T03:58:43;100430;;;20;49
33432;BME280;35187;31.882;34.828;2023-05-21T04:01:18;100430;;;20;49
33432;BME280;35187;31.882;34.828;2023-05-21T04:03:47;100430;;;20;49
33432;BME280;35187;31.882;34.828;2023-05-21T04:06:26;100440;;;20;49
33432;BME280;35187;31.882;34.828;2023-05-21T04:09:02;100440;;;19;49
33432;BME280;35187;31.882;34.828;2023-05-21T04:11:35;100440;;;20;49
33432;BME280;35187;31.882;34.828;2023-05-21T04:14:16;100440;;;20;49
33432;BME280;35187;31.882;34.828;2023-05-21T04:16:57;100450;;;20;49
33432;BME280;35187;31.882;34.828;2023-05-21T04:19:30;100450;;;20;49
33432;BME280;35187;31.882;34.828;2023-05-21T04:22:27;100450;;;20;49
33432;BME280;35187;31.882;34.828;2023-05-21T04:24:57;100450;;;20;49
33432;BME280;35187;31.882;34.828;2023-05-21T04:27:26;100440;;;20;49
33432;BME280;35187;31.882;34.828;2023-05-21T04:30:00;100430;;;20;49
33432;BME280;35187;31.882;34.828;2023-05-21T04:32:42;100430;;;20;49
33432;BME280;35187;31.882;34.828;2023-05-21T04:35:13;100430;;;20;48
33432;BME280;35187;31.882;34.828;2023-05-21T04:37:43;100430;;;20;49
33432;BME280;35187;31.882;34.828;2023-05-21T04:40:16;100440;;;20;48
33432;BME280;35187;31.882;34.828;2023-05-21T04:42:53;100440;;;20;48
33432;BME280;35187;31.882;34.828;2023-05-21T04:45:25;100450;;;20;48
33432;BME280;35187;31.882;34.828;2023-05-21T04:47:54;100440;;;20;48
33432;BME280;35187;31.882;34.828;2023-05-21T04:50:24;100440;;;20;48
33432;BME280;35187;31.882;34.828;2023-05-21T04:52:54;100450;;;20;49
33432;BME280;35187;31.882;34.828;2023-05-21T04:55:28;100450;;;20;49
33432;BME280;35187;31.882;34.828;2023-05-21T04:57:58;100450;;;20;49
33432;BME280;35187;31.882;34.828;2023-05-21T05:00:28;100460;;;20;49
33432;BME280;35187;31.882;34.828;2023-05-21T05:02:57;100470;;;20;49
33432;BME280;35187;31.882;34.828;2023-05-21T05:05:38;100460;;;20;49
33432;BME280;35187;31.882;34.828;2023-05-21T05:08:10;100460;;;20;48
33432;BME280;35187;31.882;34.828;2023-05-21T05:10:43;100460;;;21;49
33432;BME280;35187;31.882;34.828;2023-05-21T05:13:34;100460;;;20;49
33432;BME280;35187;31.882;34.828;2023-05-21T05:16:05;100460;;;20;49
33432;BME280;35187;31.882;34.828;2023-05-21T05:18:34;100460;;;20;49
33432;BME280;35187;31.882;34.828;2023-05-21T05:21:04;100470;;;20;49
33432;BME280;35187;31.882;34.828;2023-05-21T05:23:33;100480;;;20;49
33432;BME280;35187;31.882;34.828;2023-05-21T05:26:02;100480;;;20;49
33432;BME280;35187;31.882;34.828;2023-05-21T05:28:31;100490;;;20;49
33432;BME280;35187;31.882;34.828;2023-05-21T05:31:01;100490;;;20;49
33432;BME280;35187;31.882;34.828;2023-05-21T05:33:36;100490;;;21;49
33432;BME280;35187;31.882;34.828;2023-05-21T05:36:11;100480;;;20;49
33432;BME280;35187;31.882;34.828;2023-05-21T05:38:41;100480;;;20;49
33432;BME280;35187;31.882;34.828;2023-05-21T05:41:11;100480;;;20;49
33432;BME280;35187;31.882;34.828;2023-05-21T05:43:42;100480;;;21;49
33432;BME280;35187;31.882;34.828;2023-05-21T05:46:14;100480;;;21;48
33432;BME280;35187;31.882;34.828;2023-05-21T05:48:44;100480;;;21;48
33432;BME280;35187;31.882;34.828;2023-05-21T05:51:13;100470;;;21;48
33432;BME280;35187;31.882;34.828;2023-05-21T05:53:49;100470;;;21;47
33432;BME280;35187;31.882;34.828;2023-05-21T05:56:19;100470;;;21;47
33432;BME280;35187;31.882;34.828;2023-05-21T05:58:50;100470;;;21;47
33432;BME280;35187;31.882;34.828;2023-05-21T06:01:21;100460;;;21;47
33432;BME280;35187;31.882;34.828;2023-05-21T06:03:50;100460;;;21;47
33432;BME280;35187;31.882;34.828;2023-05-21T06:06:22;100460;;;21;47
33432;BME280;35187;31.882;34.828;2023-05-21T06:08:54;100450;;;21;45
33432;BME280;35187;31.882;34.828;2023-05-21T06:11:25;100450;;;21;44
33432;BME280;35187;31.882;34.828;2023-05-21T06:13:56;100460;;;21;45
33432;BME280;35187;31.882;34.828;2023-05-21T06:16:25;100460;;;21;45
33432;BME280;35187;31.882;34.828;2023-05-21T06:18:54;100460;;;21;45
33432;BME280;35187;31.882;34.828;2023-05-21T06:21:24;100450;;;21;45
33432;BME280;35187;31.882;34.828;2023-05-21T06:23:54;100450;;;21;45
33432;BME280;35187;31.882;34.828;2023-05-21T06:26:23;100460;;;22;44
33432;BME280;35187;31.882;34.828;2023-05-21T06:28:52;100460;;;21;44
33432;BME280;35187;31.882;34.828;2023-05-21T06:31:27;100450;;;21;45
33432;BME280;35187;31.882;34.828;2023-05-21T06:34:01;100450;;;21;44
33432;BME280;35187;31.882;34.828;2023-05-21T06:36:31;100460;;;21;45
33432;BME280;35187;31.882;34.828;2023-05-21T06:39:02;100450;;;21;44
33432;BME280;35187;31.882;34.828;2023-05-21T06:41:34;100460;;;22;44
33432;BME280;35187;31.882;34.828;2023-05-21T06:44:05;100460;;;22;44
33432;BME280;35187;31.882;34.828;2023-05-21T06:46:40;100460;;;22;44
33432;BME280;35187;31.882;34.828;2023-05-21T06:49:10;100450;;;22;43
33432;BME280;35187;31.882;34.828;2023-05-21T06:51:42;100440;;;21;43
33432;BME280;35187;31.882;34.828;2023-05-21T06:54:15;100440;;;22;42
33432;BME280;35187;31.882;34.828;2023-05-21T06:56:47;100430;;;21;43
33432;BME280;35187;31.882;34.828;2023-05-21T06:59:27;100420;;;21;43
33432;BME280;35187;31.882;34.828;2023-05-21T07:01:56;100420;;;21;42
33432;BME280;35187;31.882;34.828;2023-05-21T07:04:29;100430;;;21;43
33432;BME280;35187;31.882;34.828;2023-05-21T07:07:02;100430;;;22;43
33432;BME280;35187;31.882;34.828;2023-05-21T07:09:35;100430;;;21;43
33432;BME280;35187;31.882;34.828;2023-05-21T07:12:09;100420;;;21;43
33432;BME280;35187;31.882;34.828;2023-05-21T07:14:41;100430;;;21;43
33432;BME280;35187;31.882;34.828;2023-05-21T07:17:13;100430;;;22;43
33432;BME280;35187;31.882;34.828;2023-05-21T07:19:42;100430;;;22;42
33432;BME280;35187;31.882;34.828;2023-05-21T07:22:13;100420;;;21;42
33432;BME280;35187;31.882;34.828;2023-05-21T07:24:45;100420;;;21;41
33432;BME280;35187;31.882;34.828;2023-05-21T07:27:23;100420;;;22;42
33432;BME280;35187;31.882;34.828;2023-05-21T07:29:53;100430;;;22;42
33432;BME280;35187;31.882;34.828;2023-05-21T07:32:23;100430;;;22;42
33432;BME280;35187;31.882;34.828;2023-05-21T07:34:53;100430;;;21;42
33432;BME280;35187;31.882;34.828;2023-05-21T07:37:23;100430;;;21;42
33432;BME280;35187;31.882;34.828;2023-05-21T07:39:53;100420;;;21;42
33432;BME280;35187;31.882;34.828;2023-05-21T07:42:31;100420;;;22;42
33432;BME280;35187;31.882;34.828;2023-05-21T07:45:00;100420;;;21;42
33432;BME280;35187;31.882;34.828;2023-05-21T07:47:35;100420;;;22;41
33432;BME280;35187;31.882;34.828;2023-05-21T07:50:11;100410;;;21;42
33432;BME280;35187;31.882;34.828;2023-05-21T07:52:41;100410;;;22;42
33432;BME280;35187;31.882;34.828;2023-05-21T07:55:17;100410;;;22;42
33432;BME280;35187;31.882;34.828;2023-05-21T07:57:46;100410;;;22;41
33432;BME280;35187;31.882;34.828;2023-05-21T08:00:17;100410;;;22;41
33432;BME280;35187;31.882;34.828;2023-05-21T08:02:45;100410;;;22;41
33432;BME280;35187;31.882;34.828;2023-05-21T08:05:22;100410;;;22;41
33432;BME280;35187;31.882;34.828;2023-05-21T08:07:51;100400;;;22;40
33432;BME280;35187;31.882;34.828;2023-05-21T08:10:20;100400;;;22;40
33432;BME280;35187;31.882;34.828;2023-05-21T08:12:50;100400;;;22;40
33432;BME280;35187;31.882;34.828;2023-05-21T08:15:20;100400;;;22;40
33432;BME280;35187;31.882;34.828;2023-05-21T08:17:49;100400;;;22;40
33432;BME280;35187;31.882;34.828;2023-05-21T08:28:42;100370;;;21;41
33432;BME280;35187;31.882;34.828;2023-05-21T08:31:22;100360;;;21;41
33432;BME280;35187;31.882;34.828;2023-05-21T08:34:01;100350;;;21;40
33432;BME280;35187;31.882;34.828;2023-05-21T08:36:40;100350;;;21;40
33432;BME280;35187;31.882;34.828;2023-05-21T08:39:21;100360;;;22;40
33432;BME280;35187;31.882;34.828;2023-05-21T08:42:03;100370;;;22;39
33432;BME280;35187;31.882;34.828;2023-05-21T08:44:47;100370;;;22;39
33432;BME280;35187;31.882;34.828;2023-05-21T08:47:31;100360;;;22;40
33432;BME280;35187;31.882;34.828;2023-05-21T08:50:15;100360;;;21;40
33432;BME280;35187;31.882;34.828;2023-05-21T08:52:55;100360;;;22;40
33432;BME280;35187;31.882;34.828;2023-05-21T08:55:35;100350;;;22;39
33432;BME280;35187;31.882;34.828;2023-05-21T08:58:31;100350;;;22;40
33432;BME280;35187;31.882;34.828;2023-05-21T09:01:12;100360;;;22;39
33432;BME280;35187;31.882;34.828;2023-05-21T09:03:59;100360;;;22;38
33432;BME280;35187;31.882;34.828;2023-05-21T09:06:39;100350;;;22;38
33432;BME280;35187;31.882;34.828;2023-05-21T09:09:23;100350;;;22;38
33432;BME280;35187;31.882;34.828;2023-05-21T09:12:04;100340;;;22;38
33432;BME280;35187;31.882;34.828;2023-05-21T09:14:43;100340;;;22;38
33432;BME280;35187;31.882;34.828;2023-05-21T09:17:25;100340;;;22;38
33432;BME280;35187;31.882;34.828;2023-05-21T09:20:13;100330;;;22;38
33432;BME280;35187;31.882;34.828;2023-05-21T09:22:53;100340;;;22;38
33432;BME280;35187;31.882;34.828;2023-05-21T09:25:32;100340;;;22;38
33432;BME280;35187;31.882;34.828;2023-05-21T09:28:16;100340;;;22;38
33432;BME280;35187;31.882;34.828;2023-05-21T09:30:57;100340;;;22;38
33432;BME280;35187;31.882;34.828;2023-05-21T09:33:44;100340;;;22;38
33432;BME280;35187;31.882;34.828;2023-05-21T09:36:24;100340;;;22;38
33432;BME280;35187;31.882;34.828;2023-05-21T09:39:03;100340;;;22;38
33432;BME280;35187;31.882;34.828;2023-05-21T09:41:42;100340;;;22;38
33432;BME280;35187;31.882;34.828;2023-05-21T09:44:21;100330;;;22;37
33432;BME280;35187;31.882;34.828;2023-05-21T09:47:01;100320;;;22;37
33432;BME280;35187;31.882;34.828;2023-05-21T09:49:42;100310;;;22;38
33432;BME280;35187;31.882;34.828;2023-05-21T09:52:27;100300;;;22;38
33432;BME280;35187;31.882;34.828;2023-05-21T09:55:09;100310;;;22;38
33432;BME280;35187;31.882;34.828;2023-05-21T09:57:50;100300;;;22;38
33432;BME280;35187;31.882;34.828;2023-05-21T10:00:29;100290;;;22;38
33432;BME280;35187;31.882;34.828;2023-05-21T10:03:13;100280;;;22;39
33432;BME280;35187;31.882;34.828;2023-05-21T10:05:56;100280;;;22;39
33432;BME280;35187;31.882;34.828;2023-05-21T10:08:38;100280;;;22;40
33432;BME280;35187;31.882;34.828;2023-05-21T10:11:22;100280;;;22;40
33432;BME280;35187;31.882;34.828;2023-05-21T10:14:12;100280;;;21;40
33432;BME280;35187;31.882;34.828;2023-05-21T10:16:53;100270;;;22;40
33432;BME280;35187;31.882;34.828;2023-05-21T10:19:34;100260;;;22;41
33432;BME280;35187;31.882;34.828;2023-05-21T10:22:15;100260;;;22;41
33432;BME280;35187;31.882;34.828;2023-05-21T10:24:54;100250;;;22;41
33432;BME280;35187;31.882;34.828;2023-05-21T10:27:43;100240;;;22;41
33432;BME280;35187;31.882;34.828;2023-05-21T10:30:23;100230;;;22;41
33432;BME280;35187;31.882;34.828;2023-05-21T10:33:03;100220;;;22;42
33432;BME280;35187;31.882;34.828;2023-05-21T10:35:43;100220;;;22;42
33432;BME280;35187;31.882;34.828;2023-05-21T10:38:24;100220;;;22;42
33432;BME280;35187;31.882;34.828;2023-05-21T10:41:07;100210;;;22;42
33432;BME280;35187;31.882;34.828;2023-05-21T10:43:57;100200;;;22;42
33432;BME280;35187;31.882;34.828;2023-05-21T10:47:55;100190;;;22;42
33432;BME280;35187;31.882;34.828;2023-05-21T10:51:11;100180;;;22;41
33432;BME280;35187;31.882;34.828;2023-05-21T10:54:06;100180;;;22;42
33432;BME280;35187;31.882;34.828;2023-05-21T10:56:52;100180;;;22;42
33432;BME280;35187;31.882;34.828;2023-05-21T10:59:39;100180;;;22;42
33432;BME280;35187;31.882;34.828;2023-05-21T11:02:20;100180;;;22;42
33432;BME280;35187;31.882;34.828;2023-05-21T11:05:04;100180;;;22;42
33432;BME280;35187;31.882;34.828;2023-05-21T11:08:01;100200;;;22;42
33432;BME280;35187;31.882;34.828;2023-05-21T11:10:42;100200;;;22;42
33432;BME280;35187;31.882;34.828;2023-05-21T11:13:22;100200;;;22;42
33432;BME280;35187;31.882;34.828;2023-05-21T11:16:13;100200;;;22;42
33432;BME280;35187;31.882;34.828;2023-05-21T11:19:14;100200;;;22;41
33432;BME280;35187;31.882;34.828;2023-05-21T11:21:55;100190;;;22;41
33432;BME280;35187;31.882;34.828;2023-05-21T11:24:39;100170;;;22;41
33432;BME280;35187;31.882;34.828;2023-05-21T11:27:34;100160;;;22;41
33432;BME280;35187;31.882;34.828;2023-05-21T11:30:19;100170;;;22;41
33432;BME280;35187;31.882;34.828;2023-05-21T11:33:38;100170;;;22;41
33432;BME280;35187;31.882;34.828;2023-05-21T11:36:17;100170;;;23;41
33432;BME280;35187;31.882;34.828;2023-05-21T11:39:13;100170;;;22;40
33432;BME280;35187;31.882;34.828;2023-05-21T11:42:02;100170;;;22;40
33432;BME280;35187;31.882;34.828;2023-05-21T11:45:00;100160;;;22;40
33432;BME280;35187;31.882;34.828;2023-05-21T11:47:55;100160;;;21;40
33432;BME280;35187;31.882;34.828;2023-05-21T11:50:36;100150;;;22;40
33432;BME280;35187;31.882;34.828;2023-05-21T11:53:16;100160;;;22;40
33432;BME280;35187;31.882;34.828;2023-05-21T11:55:57;100160;;;23;40
33432;BME280;35187;31.882;34.828;2023-05-21T11:58:40;100150;;;22;41
33432;BME280;35187;31.882;34.828;2023-05-21T12:01:26;100140;;;22;41
33432;BME280;35187;31.882;34.828;2023-05-21T12:04:08;100140;;;22;41
33432;BME280;35187;31.882;34.828;2023-05-21T12:06:48;100140;;;22;42
33432;BME280;35187;31.882;34.828;2023-05-21T12:09:27;100140;;;22;42
33432;BME280;35187;31.882;34.828;2023-05-21T12:12:07;100130;;;22;42
33432;BME280;35187;31.882;34.828;2023-05-21T12:14:48;100130;;;22;42
33432;BME280;35187;31.882;34.828;2023-05-21T12:17:29;100140;;;23;42
33432;BME280;35187;31.882;34.828;2023-05-21T12:20:13;100130;;;22;43
33432;BME280;35187;31.882;34.828;2023-05-21T12:22:55;100130;;;22;43
33432;BME280;35187;31.882;34.828;2023-05-21T12:25:35;100130;;;22;43
33432;BME280;35187;31.882;34.828;2023-05-21T12:28:18;100130;;;22;43
33432;BME280;35187;31.882;34.828;2023-05-21T12:31:00;100130;;;22;43
33432;BME280;35187;31.882;34.828;2023-05-21T12:33:39;100130;;;22;43
33432;BME280;35187;31.882;34.828;2023-05-21T12:36:31;100130;;;22;43
33432;BME280;35187;31.882;34.828;2023-05-21T12:39:13;100120;;;22;43
33432;BME280;35187;31.882;34.828;2023-05-21T12:41:56;100120;;;23;43
33432;BME280;35187;31.882;34.828;2023-05-21T12:44:38;100120;;;22;43
33432;BME280;35187;31.882;34.828;2023-05-21T12:47:18;100110;;;23;43
33432;BME280;35187;31.882;34.828;2023-05-21T12:50:02;100100;;;23;43
33432;BME280;35187;31.882;34.828;2023-05-21T12:52:42;100100;;;23;43
33432;BME280;35187;31.882;34.828;2023-05-21T12:55:22;100100;;;22;43
33432;BME280;35187;31.882;34.828;2023-05-21T12:58:11;100090;;;22;43
33432;BME280;35187;31.882;34.828;2023-05-21T13:00:57;100090;;;22;43
33432;BME280;35187;31.882;34.828;2023-05-21T13:03:37;100090;;;22;43
33432;BME280;35187;31.882;34.828;2023-05-21T13:06:17;100090;;;22;44
33432;BME280;35187;31.882;34.828;2023-05-21T13:08:56;100090;;;23;44
33432;BME280;35187;31.882;34.828;2023-05-21T13:11:35;100100;;;22;44
33432;BME280;35187;31.882;34.828;2023-05-21T13:14:14;100090;;;22;44
33432;BME280;35187;31.882;34.828;2023-05-21T13:16:53;100100;;;22;44
33432;BME280;35187;31.882;34.828;2023-05-21T13:19:32;100100;;;22;44
33432;BME280;35187;31.882;34.828;2023-05-21T13:22:14;100100;;;22;44
33432;BME280;35187;31.882;34.828;2023-05-21T13:25:05;100110;;;22;44
33432;BME280;35187;31.882;34.828;2023-05-21T13:27:52;100100;;;23;44
33432;BME280;35187;31.882;34.828;2023-05-21T13:30:36;100100;;;23;44
33432;BME280;35187;31.882;34.828;2023-05-21T13:33:15;100090;;;22;44
33432;BME280;35187;31.882;34.828;2023-05-21T13:35:55;100080;;;22;44
33432;BME280;35187;31.882;34.828;2023-05-21T13:38:34;100070;;;22;44
33432;BME280;35187;31.882;34.828;2023-05-21T13:41:13;100060;;;22;45
33432;BME280;35187;31.882;34.828;2023-05-21T13:43:52;100060;;;22;45
33432;BME280;35187;31.882;34.828;2023-05-21T13:46:31;100060;;;22;45
33432;BME280;35187;31.882;34.828;2023-05-21T13:49:10;100060;;;22;45
33432;BME280;35187;31.882;34.828;2023-05-21T13:51:49;100050;;;22;45
33432;BME280;35187;31.882;34.828;2023-05-21T13:54:28;100050;;;22;45
33432;BME280;35187;31.882;34.828;2023-05-21T13:57:08;100060;;;22;45
33432;BME280;35187;31.882;34.828;2023-05-21T13:59:47;100050;;;22;45
33432;BME280;35187;31.882;34.828;2023-05-21T14:02:26;100040;;;22;45
33432;BME280;35187;31.882;34.828;2023-05-21T14:05:08;100050;;;22;45
33432;BME280;35187;31.882;34.828;2023-05-21T14:07:51;100050;;;22;45
33432;BME280;35187;31.882;34.828;2023-05-21T14:10:30;100050;;;22;45
33432;BME280;35187;31.882;34.828;2023-05-21T14:13:13;100050;;;22;45
33432;BME280;35187;31.882;34.828;2023-05-21T14:15:55;100050;;;22;45
33432;BME280;35187;31.882;34.828;2023-05-21T14:18:34;100050;;;22;45
33432;BME280;35187;31.882;34.828;2023-05-21T14:21:17;100050;;;22;45
33432;BME280;35187;31.882;34.828;2023-05-21T14:23:56;100040;;;22;45
33432;BME280;35187;31.882;34.828;2023-05-21T14:26:38;100040;;;22;45
33432;BME280;35187;31.882;34.828;2023-05-21T14:29:19;100050;;;22;45
33432;BME280;35187;31.882;34.828;2023-05-21T14:31:58;100040;;;22;44
33432;BME280;35187;31.882;34.828;2023-05-21T14:34:37;100030;;;22;44
33432;BME280;35187;31.882;34.828;2023-05-21T14:37:16;100030;;;22;44
33432;BME280;35187;31.882;34.828;2023-05-21T14:39:55;100040;;;22;44
33432;BME280;35187;31.882;34.828;2023-05-21T14:42:35;100040;;;22;44
33432;BME280;35187;31.882;34.828;2023-05-21T14:45:14;100040;;;22;44
33432;BME280;35187;31.882;34.828;2023-05-21T14:48:07;100030;;;22;44
33432;BME280;35187;31.882;34.828;2023-05-21T14:50:47;100040;;;22;44
33432;BME280;35187;31.882;34.828;2023-05-21T14:53:27;100030;;;22;44
33432;BME280;35187;31.882;34.828;2023-05-21T14:56:06;100020;;;22;44
33432;BME280;35187;31.882;34.828;2023-05-21T14:58:45;100010;;;22;44
33432;BME280;35187;31.882;34.828;2023-05-21T15:01:24;100000;;;22;44
33432;BME280;35187;31.882;34.828;2023-05-21T15:04:07;100010;;;22;44
33432;BME280;35187;31.882;34.828;2023-05-21T15:06:47;100020;;;22;44
33432;BME280;35187;31.882;34.828;2023-05-21T15:09:26;100020;;;22;44
33432;BME280;35187;31.882;34.828;2023-05-21T15:12:08;100020;;;22;44
33432;BME280;35187;31.882;34.828;2023-05-21T15:14:49;100020;;;22;44
33432;BME280;35187;31.882;34.828;2023-05-21T15:17:28;100000;;;22;44
33432;BME280;35187;31.882;34.828;2023-05-21T15:20:08;99970;;;22;44
33432;BME280;35187;31.882;34.828;2023-05-21T15:22:47;99980;;;22;44
33432;BME280;35187;31.882;34.828;2023-05-21T15:25:26;99990;;;22;44
33432;BME280;35187;31.882;34.828;2023-05-21T15:28:05;99990;;;22;45